Time;durP1;ratioP1;P1;durP2;ratioP2;P2;SDS_P1;SDS_P2;PMS_P1;PMS_P2;Temp;Humidity;BMP_temperature;BMP_pressure;BME280_temperature;BME280_humidity;BME280_pressure;Samples;Min_cycle;Max_cycle;Signal;HPM_P1;HPM_P2
2023/02/11 00:00:15;;;;;;;8.27;4.32;;;;;;;8.47;75.69;101985.34;5020470;28;20493;-49
2023/02/11 00:02:42;;;;;;;6.55;4.05;;;;;;;8.46;75.74;101973.25;5019496;28;20481;-49
2023/02/11 00:05:13;;;;;;;6.82;4.63;;;;;;;8.47;76.25;101969.84;5015236;28;20050;-48
2023/02/11 00:07:39;;;;;;;11.20;5.78;;;;;;;8.48;76.09;101961.28;5018251;28;20068;-49
2023/02/11 00:10:07;;;;;;;6.65;4.15;;;;;;;8.51;76.13;101964.81;5025008;28;20585;-50
2023/02/11 00:12:35;;;;;;;9.98;4.78;;;;;;;8.52;75.45;101966.56;5023266;28;20076;-49
2023/02/11 00:15:02;;;;;;;7.50;4.50;;;;;;;8.54;75.36;101964.97;5025982;28;20095;-50
2023/02/11 00:17:29;;;;;;;8.60;4.63;;;;;;;8.55;75.30;101962.41;5022609;28;20572;-48
2023/02/11 00:19:55;;;;;;;8.00;4.45;;;;;;;8.53;75.97;101957.97;5026699;28;20181;-49
2023/02/11 00:22:22;;;;;;;7.53;4.68;;;;;;;8.55;76.03;101958.97;5025957;28;20073;-48
2023/02/11 00:24:49;;;;;;;8.07;5.47;;;;;;;8.57;75.04;101954.72;5024104;28;20091;-49
2023/02/11 00:27:15;;;;;;;7.10;3.70;;;;;;;8.58;75.03;101961.66;5026832;28;20073;-50
2023/02/11 00:29:42;;;;;;;8.48;4.68;;;;;;;8.58;75.15;101961.66;5025397;28;20050;-49
2023/02/11 00:32:09;;;;;;;6.47;4.63;;;;;;;8.59;75.29;101963.41;5024752;28;20120;-48
2023/02/11 00:34:37;;;;;;;8.60;4.30;;;;;;;8.59;75.13;101953.06;5018723;28;20153;-49
2023/02/11 00:37:04;;;;;;;7.85;4.65;;;;;;;8.58;75.10;101946.16;5022710;28;20049;-48
2023/02/11 00:39:31;;;;;;;9.23;4.35;;;;;;;8.57;75.13;101945.28;5052286;28;20596;-48
2023/02/11 00:41:58;;;;;;;7.00;3.17;;;;;;;8.56;76.21;101942.63;5023477;28;20409;-49
2023/02/11 00:44:24;;;;;;;6.63;4.13;;;;;;;8.48;75.04;101929.41;5026073;28;20092;-48
2023/02/11 00:46:51;;;;;;;6.40;3.63;;;;;;;8.42;76.11;101930.06;5017214;28;20168;-48
2023/02/11 00:49:18;;;;;;;7.28;4.78;;;;;;;8.38;75.83;101933.38;5021341;28;20723;-47
2023/02/11 00:51:44;;;;;;;8.02;5.68;;;;;;;8.34;75.30;101931.47;5023335;28;20077;-48
2023/02/11 00:54:11;;;;;;;7.80;4.10;;;;;;;8.27;75.43;101924.34;5022013;28;20046;-48
2023/02/11 00:56:37;;;;;;;7.18;4.43;;;;;;;8.22;75.55;101927.66;5023376;28;20100;-47
2023/02/11 00:59:04;;;;;;;6.15;3.75;;;;;;;8.16;76.21;101929.97;5024174;28;20353;-48
2023/02/11 01:01:31;;;;;;;7.10;4.60;;;;;;;8.11;76.17;101923.78;5026176;28;20069;-48
2023/02/11 01:03:57;;;;;;;7.25;4.18;;;;;;;8.07;75.72;101934.81;5024507;28;20258;-48
2023/02/11 01:06:24;;;;;;;8.13;4.53;;;;;;;8.02;76.61;101928.56;5024569;28;20077;-48
2023/02/11 01:08:50;;;;;;;8.40;4.05;;;;;;;7.98;76.35;101925.00;5025751;28;20276;-47
2023/02/11 01:11:19;;;;;;;6.15;3.47;;;;;;;7.94;76.42;101926.56;5024120;28;20077;-48
2023/02/11 01:13:47;;;;;;;9.68;4.40;;;;;;;7.91;75.44;101926.44;5024340;28;20064;-49
2023/02/11 01:16:14;;;;;;;8.00;4.45;;;;;;;7.88;76.84;101923.78;5023195;28;20057;-49
2023/02/11 01:18:43;;;;;;;9.05;4.32;;;;;;;7.86;75.60;101925.41;5020105;28;20049;-48
2023/02/11 01:21:10;;;;;;;7.28;4.18;;;;;;;7.82;75.70;101920.94;5025786;28;20077;-48
2023/02/11 01:23:37;;;;;;;7.13;3.88;;;;;;;7.81;75.66;101924.34;5024203;28;20053;-49
2023/02/11 01:26:04;;;;;;;8.57;4.25;;;;;;;7.79;76.82;101936.28;5026251;28;20045;-51
2023/02/11 01:28:31;;;;;;;9.05;4.22;;;;;;;7.75;75.87;101939.56;5027441;28;20045;-49
2023/02/11 01:30:59;;;;;;;7.82;4.32;;;;;;;7.74;75.40;101942.97;5025074;28;20213;-47
2023/02/11 01:33:25;;;;;;;9.55;5.05;;;;;;;7.72;76.98;101946.41;5026405;28;20049;-47
2023/02/11 01:35:52;;;;;;;7.22;3.78;;;;;;;7.69;76.13;101946.25;5025686;28;20576;-49
2023/02/11 01:38:22;;;;;;;6.28;3.78;;;;;;;7.67;75.70;101947.88;5026267;28;20046;-50
2023/02/11 01:40:53;;;;;;;6.57;3.80;;;;;;;7.65;76.93;101949.53;5020888;28;20509;-47
2023/02/11 01:43:20;;;;;;;8.00;4.47;;;;;;;7.63;76.70;101955.47;5018110;28;20131;-51
2023/02/11 01:48:29;;;;;;;8.57;3.13;;;;;;;7.60;75.80;101945.88;5029791;28;20402;-50
2023/02/11 01:51:03;;;;;;;6.88;2.38;;;;;;;7.58;76.54;101955.25;5014707;28;20084;-47
2023/02/11 01:59:12;;;;;;;6.47;2.33;;;;;;;7.50;76.61;101959.25;5000301;28;20131;-50
2023/02/11 02:01:42;;;;;;;7.32;2.70;;;;;;;7.52;75.81;101963.63;5015726;28;20509;-48
2023/02/11 02:04:10;;;;;;;6.88;2.55;;;;;;;7.53;76.30;101969.69;5017703;28;20381;-48
2023/02/11 02:06:47;;;;;;;8.13;3.22;;;;;;;7.54;75.64;101956.81;5001263;28;20078;-48
2023/02/11 02:09:27;;;;;;;6.70;2.78;;;;;;;7.55;77.32;101952.56;5001957;28;20056;-51
2023/02/11 02:11:53;;;;;;;6.88;2.63;;;;;;;7.59;76.62;101950.19;5034720;28;20436;-49
2023/02/11 02:14:20;;;;;;;5.40;2.38;;;;;;;7.57;76.97;101930.31;4993891;28;20092;-50
2023/02/11 02:16:47;;;;;;;7.32;2.17;;;;;;;7.57;76.18;101930.31;4990087;28;20257;-48
2023/02/11 02:19:53;;;;;;;7.53;2.67;;;;;;;7.51;77.25;101927.47;4998972;28;20778;-48
2023/02/11 02:33:38;;;;;;;7.50;2.92;;;;;;;7.53;76.66;101943.91;5090097;27;20516;-49
2023/02/11 02:41:22;;;;;;;5.10;1.70;;;;;;;7.46;76.43;101956.53;5050274;28;20764;-48
2023/02/11 02:43:50;;;;;;;6.55;3.72;;;;;;;7.44;77.12;101971.03;5014391;27;20058;-48
2023/02/11 02:46:21;;;;;;;6.05;3.83;;;;;;;7.41;77.08;101970.94;5008464;28;20038;-47
2023/02/11 02:48:51;;;;;;;5.28;3.10;;;;;;;7.38;77.33;101968.22;5009974;28;20049;-48
2023/02/11 02:59:36;;;;;;;4.45;1.88;;;;;;;7.29;76.86;101940.38;5040396;28;20408;-47
2023/02/11 03:07:32;;;;;;;7.97;2.58;;;;;;;7.42;76.10;101939.16;5030608;27;20741;-49
2023/02/11 03:10:07;;;;;;;7.25;2.40;;;;;;;7.36;76.86;101944.06;5019024;28;20065;-48
2023/02/11 03:12:35;;;;;;;8.18;2.78;;;;;;;7.31;76.67;101951.63;5015588;28;20065;-50
2023/02/11 03:15:05;;;;;;;5.05;2.45;;;;;;;7.29;77.24;101944.63;5020815;28;20133;-46
2023/02/11 03:17:35;;;;;;;6.15;2.20;;;;;;;7.25;76.77;101943.63;5015215;28;20413;-48
2023/02/11 03:20:04;;;;;;;6.85;2.85;;;;;;;7.22;78.01;101938.34;5015781;28;20136;-48
2023/02/11 03:22:36;;;;;;;6.57;2.30;;;;;;;7.16;77.52;101938.97;5015922;28;20078;-50
2023/02/11 03:25:04;;;;;;;8.63;2.67;;;;;;;7.13;77.59;101933.69;5021354;28;20681;-48
2023/02/11 03:27:44;;;;;;;7.00;2.15;;;;;;;7.09;76.98;101929.22;5010819;28;20868;-46
2023/02/11 03:30:17;;;;;;;8.65;2.72;;;;;;;7.06;77.42;101932.56;5012377;28;20403;-46
2023/02/11 03:38:09;;;;;;;7.53;2.80;;;;;;;7.03;76.97;101923.81;5058754;27;20420;-48
2023/02/11 03:40:38;;;;;;;7.15;3.08;;;;;;;7.00;76.54;101923.69;5052563;28;20110;-47
2023/02/11 03:43:12;;;;;;;8.48;2.75;;;;;;;6.99;76.49;101914.22;5054402;28;20564;-47
2023/02/11 03:45:39;;;;;;;8.57;2.40;;;;;;;6.98;77.01;101912.41;5054311;28;20565;-50
2023/02/11 03:48:13;;;;;;;6.95;2.97;;;;;;;6.98;77.10;101915.00;5051079;28;20505;-49
2023/02/11 03:50:40;;;;;;;7.75;3.08;;;;;;;6.96;77.83;101917.53;5049646;28;20041;-50
2023/02/11 03:53:08;;;;;;;6.10;2.53;;;;;;;6.97;76.54;101918.41;5048126;28;20053;-48
2023/02/11 03:55:38;;;;;;;5.10;2.17;;;;;;;6.94;77.27;101917.47;5050056;28;20123;-48
2023/02/11 03:58:06;;;;;;;7.65;2.55;;;;;;;6.95;78.46;101918.34;5052216;28;20098;-49
2023/02/11 04:00:38;;;;;;;5.35;2.17;;;;;;;6.93;77.47;101920.84;5057081;28;20045;-48
2023/02/11 04:03:05;;;;;;;6.13;1.95;;;;;;;6.93;76.97;101919.97;5055989;28;20798;-47
2023/02/11 04:05:33;;;;;;;7.18;2.15;;;;;;;6.91;77.68;101917.34;5055470;28;20048;-47
2023/02/11 04:08:00;;;;;;;6.65;2.88;;;;;;;6.90;77.72;101915.59;5057238;28;20070;-48
2023/02/11 04:10:26;;;;;;;5.55;2.20;;;;;;;6.89;78.06;101911.22;5057233;28;20085;-48
2023/02/11 04:12:53;;;;;;;8.27;2.42;;;;;;;6.89;76.62;101915.50;5056376;28;20094;-48
2023/02/11 04:15:19;;;;;;;6.53;2.42;;;;;;;6.86;77.36;101923.97;5054039;28;20080;-47
2023/02/11 04:17:46;;;;;;;4.88;1.98;;;;;;;6.85;77.99;101935.09;5053209;28;20520;-48
2023/02/11 04:20:13;;;;;;;5.03;2.13;;;;;;;6.85;78.20;101939.38;5048954;28;20095;-48
2023/02/11 04:22:39;;;;;;;7.63;1.85;;;;;;;6.85;77.47;101947.09;5047839;28;20063;-47
2023/02/11 04:25:07;;;;;;;6.40;2.28;;;;;;;6.85;77.90;101942.81;5057347;28;20068;-46
2023/02/11 04:27:33;;;;;;;6.55;2.70;;;;;;;6.88;77.68;101942.97;5050812;28;20072;-48
2023/02/11 04:30:00;;;;;;;7.75;2.63;;;;;;;6.91;78.32;101948.25;5049743;28;20079;-48
2023/02/11 04:32:27;;;;;;;8.50;2.05;;;;;;;6.97;76.65;101951.88;5055413;28;20468;-47
2023/02/11 04:34:54;;;;;;;6.65;2.30;;;;;;;7.00;77.71;101941.72;5046037;28;20453;-48
2023/02/11 04:37:20;;;;;;;6.78;1.73;;;;;;;7.05;78.05;101940.22;5053793;28;20072;-49
2023/02/11 04:39:47;;;;;;;5.30;2.30;;;;;;;7.09;77.48;101944.69;5054611;28;20040;-47
2023/02/11 04:42:13;;;;;;;6.78;2.85;;;;;;;7.13;78.20;101956.88;5052268;28;20508;-48
2023/02/11 04:44:40;;;;;;;6.18;2.13;;;;;;;7.19;77.12;101959.72;5052524;28;20094;-47
2023/02/11 04:47:07;;;;;;;9.75;2.72;;;;;;;7.25;77.12;101963.34;5051711;28;20106;-47
2023/02/11 04:49:33;;;;;;;10.93;2.95;;;;;;;7.29;78.39;101960.09;5039588;28;20072;-47
2023/02/11 04:52:00;;;;;;;7.60;2.63;;;;;;;7.34;77.93;101966.34;5040068;28;20616;-48
2023/02/11 04:54:27;;;;;;;8.48;2.60;;;;;;;7.38;76.96;101968.22;5036067;28;20037;-47
2023/02/11 04:56:53;;;;;;;10.13;3.40;;;;;;;7.43;77.79;101971.88;5039053;28;20080;-47
2023/02/11 04:59:20;;;;;;;7.68;2.63;;;;;;;7.45;77.87;101965.09;5042539;28;20044;-48
2023/02/11 05:01:46;;;;;;;7.18;2.45;;;;;;;7.49;78.30;101981.56;5037972;28;20052;-48
2023/02/11 05:04:13;;;;;;;9.45;2.55;;;;;;;7.52;77.94;101988.53;5038747;28;20135;-47
2023/02/11 05:06:40;;;;;;;9.30;2.63;;;;;;;7.54;77.82;101987.78;5039844;28;20495;-47
2023/02/11 05:09:07;;;;;;;7.13;2.65;;;;;;;7.56;78.15;101982.69;5041396;28;20083;-48
2023/02/11 05:11:35;;;;;;;7.95;2.65;;;;;;;7.56;77.46;101985.25;5036026;28;20144;-48
2023/02/11 05:14:02;;;;;;;9.57;2.83;;;;;;;7.58;77.74;101988.78;5039284;28;20500;-47
2023/02/11 05:16:28;;;;;;;7.72;3.08;;;;;;;7.58;77.78;101983.63;5038595;28;20060;-50
2023/02/11 05:18:55;;;;;;;10.50;4.28;;;;;;;7.59;77.98;101985.38;5041272;28;20402;-49
2023/02/11 05:21:22;;;;;;;8.32;2.67;;;;;;;7.57;78.20;101984.47;5043403;28;20077;-47
2023/02/11 05:23:48;;;;;;;7.78;3.35;;;;;;;7.57;77.77;101985.31;5037690;28;20080;-49
2023/02/11 05:26:15;;;;;;;8.02;3.13;;;;;;;7.55;77.22;101983.50;5041866;28;20138;-47
2023/02/11 05:28:43;;;;;;;9.95;3.20;;;;;;;7.56;76.91;101980.09;5032656;28;20127;-48
2023/02/11 05:31:13;;;;;;;8.95;3.28;;;;;;;7.57;76.78;101976.72;5038771;28;20150;-47
2023/02/11 05:33:40;;;;;;;7.82;3.05;;;;;;;7.56;77.81;101980.09;5029848;28;20048;-47
2023/02/11 05:36:09;;;;;;;8.02;2.65;;;;;;;7.57;77.81;101985.31;5039244;28;20582;-47
2023/02/11 05:38:36;;;;;;;7.32;2.40;;;;;;;7.57;77.84;101994.78;5032961;28;20088;-49
2023/02/11 05:41:05;;;;;;;12.13;2.33;;;;;;;7.55;78.26;101994.72;5041299;28;20049;-48
2023/02/11 05:43:34;;;;;;;7.35;2.83;;;;;;;7.59;77.22;102000.88;5035646;28;20489;-49
2023/02/11 05:46:01;;;;;;;7.13;2.40;;;;;;;7.57;77.56;101992.19;5040071;28;20044;-47
2023/02/11 05:48:27;;;;;;;8.15;2.38;;;;;;;7.59;77.76;101995.69;5035451;28;20662;-48
2023/02/11 05:50:54;;;;;;;6.82;3.13;;;;;;;7.59;77.11;102001.75;5041008;28;20106;-49
2023/02/11 05:53:20;;;;;;;9.48;2.88;;;;;;;7.60;76.89;102007.78;5040656;28;20093;-48
2023/02/11 05:55:47;;;;;;;6.30;2.45;;;;;;;7.60;77.17;102005.19;5041936;28;20045;-48
2023/02/11 05:58:14;;;;;;;7.18;3.00;;;;;;;7.59;78.13;101996.59;5035007;28;20126;-48
2023/02/11 06:00:41;;;;;;;6.28;2.45;;;;;;;7.63;77.83;102007.91;5041811;28;20514;-48
2023/02/11 06:03:07;;;;;;;8.15;2.25;;;;;;;7.62;77.99;101995.84;5036400;28;20049;-49
2023/02/11 06:05:34;;;;;;;6.40;2.33;;;;;;;7.62;76.96;102003.56;5038590;28;20100;-48
2023/02/11 06:08:01;;;;;;;5.40;2.33;;;;;;;7.63;78.06;102002.75;5037905;28;20049;-48
2023/02/11 06:10:27;;;;;;;5.32;1.92;;;;;;;7.63;77.13;102007.91;5041764;28;20099;-49
2023/02/11 06:12:54;;;;;;;11.73;2.70;;;;;;;7.63;78.07;102007.03;5038890;28;20061;-47
2023/02/11 06:15:20;;;;;;;7.05;2.22;;;;;;;7.65;76.80;102008.88;5037893;28;20144;-48
2023/02/11 06:17:47;;;;;;;5.82;1.95;;;;;;;7.65;78.07;102013.13;5040190;28;20073;-47
2023/02/11 06:20:14;;;;;;;6.85;2.25;;;;;;;7.65;77.96;102016.59;5042510;28;20136;-48
2023/02/11 06:22:40;;;;;;;7.60;2.15;;;;;;;7.68;77.84;102021.88;5039268;28;20129;-47
2023/02/11 06:25:07;;;;;;;9.30;2.28;;;;;;;7.67;77.77;102033.00;5041702;28;20052;-48
2023/02/11 06:27:34;;;;;;;7.50;2.42;;;;;;;7.67;77.26;102029.56;5036682;28;20053;-47
2023/02/11 06:30:00;;;;;;;6.95;3.05;;;;;;;7.67;77.15;102030.41;5039813;28;20361;-48
2023/02/11 06:32:28;;;;;;;7.25;2.25;;;;;;;7.67;76.63;102020.09;5036897;28;20481;-47
2023/02/11 06:35:10;;;;;;;6.68;2.47;;;;;;;7.66;77.69;102013.19;5035734;28;20057;-51
2023/02/11 06:37:38;;;;;;;9.27;2.75;;;;;;;7.67;77.41;102014.94;5039563;28;20076;-48
2023/02/11 06:40:05;;;;;;;5.22;1.90;;;;;;;7.66;76.84;102015.78;5034376;28;20037;-47
2023/02/11 06:42:33;;;;;;;6.85;2.30;;;;;;;7.66;77.78;102023.50;5040488;28;20072;-47
2023/02/11 06:45:00;;;;;;;7.32;2.80;;;;;;;7.67;77.75;102033.00;5037541;28;20053;-50
2023/02/11 06:47:26;;;;;;;5.85;2.17;;;;;;;7.67;76.22;102032.16;5034558;28;20083;-47
2023/02/11 06:49:53;;;;;;;5.10;1.67;;;;;;;7.68;77.17;102033.91;5040697;28;20054;-48
2023/02/11 06:52:19;;;;;;;7.65;2.85;;;;;;;7.66;76.64;102033.81;5039795;28;20045;-47
2023/02/11 06:54:46;;;;;;;8.57;2.33;;;;;;;7.67;77.06;102040.75;5041651;28;20087;-51
2023/02/11 06:57:12;;;;;;;6.72;2.65;;;;;;;7.67;77.90;102039.88;5034229;28;20065;-48
2023/02/11 06:59:40;;;;;;;7.90;2.33;;;;;;;7.68;77.62;102037.38;5038254;28;20051;-49
2023/02/11 07:02:09;;;;;;;9.00;2.70;;;;;;;7.69;77.67;102045.97;5033399;28;20049;-48
2023/02/11 07:04:35;;;;;;;6.15;2.13;;;;;;;7.69;76.43;102039.13;5035264;28;20261;-48
2023/02/11 07:07:02;;;;;;;6.25;2.33;;;;;;;7.67;76.41;102038.16;5035531;28;20053;-48
2023/02/11 07:09:29;;;;;;;8.13;2.35;;;;;;;7.66;76.70;102028.66;5034246;28;20049;-48
2023/02/11 07:11:55;;;;;;;4.75;2.63;;;;;;;7.65;76.82;102026.91;5032537;28;20568;-49
2023/02/11 07:14:22;;;;;;;6.00;1.55;;;;;;;7.64;76.45;102025.16;5037082;28;20041;-47
2023/02/11 07:16:49;;;;;;;7.35;2.58;;;;;;;7.62;77.36;102025.88;5033717;28;20425;-47
2023/02/11 07:19:15;;;;;;;4.15;2.15;;;;;;;7.58;76.47;102035.22;5037630;28;20072;-48
2023/02/11 07:21:42;;;;;;;6.20;1.80;;;;;;;7.56;77.72;102037.72;5038083;28;20053;-48
2023/02/11 07:24:09;;;;;;;5.35;2.53;;;;;;;7.56;76.90;102047.16;5036441;28;20045;-49
2023/02/11 07:26:37;;;;;;;5.20;1.85;;;;;;;7.56;77.16;102039.41;5037169;28;20504;-48
2023/02/11 07:29:04;;;;;;;5.53;2.10;;;;;;;7.57;77.69;102041.19;5030936;28;20549;-48
2023/02/11 07:31:31;;;;;;;9.45;2.47;;;;;;;7.57;76.93;102047.22;5032742;28;20718;-49
2023/02/11 07:34:00;;;;;;;11.80;3.00;;;;;;;7.58;77.09;102061.91;5034367;28;20051;-47
2023/02/11 07:36:28;;;;;;;9.02;2.60;;;;;;;7.58;77.67;102072.22;5035170;28;20575;-48
2023/02/11 07:38:55;;;;;;;16.67;6.15;;;;;;;7.58;76.55;102072.22;5026359;28;20111;-46
2023/02/11 07:41:24;;;;;;;20.02;9.07;;;;;;;7.60;76.27;102079.97;5032084;28;20598;-50
2023/02/11 07:43:51;;;;;;;27.73;14.27;;;;;;;7.60;76.58;102069.66;5031111;28;20053;-49
2023/02/11 07:46:22;;;;;;;21.08;11.25;;;;;;;7.61;77.35;102070.56;5027076;28;20525;-50
2023/02/11 07:48:48;;;;;;;14.23;8.95;;;;;;;7.61;76.32;102068.88;5032236;28;20116;-48
2023/02/11 07:51:17;;;;;;;12.98;8.57;;;;;;;7.62;77.32;102065.47;5034636;28;20048;-47
2023/02/11 07:53:45;;;;;;;14.95;6.85;;;;;;;7.62;76.12;102062.88;5029648;28;20048;-48
2023/02/11 07:56:13;;;;;;;9.52;5.18;;;;;;;7.63;76.13;102074.09;5032164;28;20071;-48
2023/02/11 07:58:41;;;;;;;14.60;6.90;;;;;;;7.63;77.86;102069.81;5030002;28;20087;-47
2023/02/11 08:01:12;;;;;;;12.07;4.68;;;;;;;7.67;76.32;102081.16;5031515;28;20049;-49
2023/02/11 08:03:40;;;;;;;9.57;4.22;;;;;;;7.67;76.26;102071.69;5033411;28;20076;-47
2023/02/11 08:06:12;;;;;;;7.03;3.92;;;;;;;7.70;77.59;102066.66;5029254;28;20053;-48
2023/02/11 08:08:38;;;;;;;7.28;2.78;;;;;;;7.70;76.34;102065.81;5030458;28;20131;-48
2023/02/11 08:11:07;;;;;;;5.95;3.13;;;;;;;7.71;77.55;102067.56;5027604;28;20091;-48
2023/02/11 08:13:34;;;;;;;8.70;4.57;;;;;;;7.70;77.33;102082.16;5031165;28;20459;-52
2023/02/11 08:16:01;;;;;;;9.55;3.85;;;;;;;7.70;76.30;102089.88;5027858;28;20140;-48
2023/02/11 08:18:29;;;;;;;5.88;3.15;;;;;;;7.72;76.99;102101.16;5031323;28;20045;-48
2023/02/11 08:20:55;;;;;;;8.43;3.15;;;;;;;7.74;76.40;102092.59;5025924;28;20188;-48
2023/02/11 08:23:22;;;;;;;18.77;8.90;;;;;;;7.78;77.37;102091.91;5032622;28;20075;-47
2023/02/11 08:25:48;;;;;;;23.35;12.32;;;;;;;7.80;76.04;102082.56;5037300;28;20172;-46
2023/02/11 08:28:15;;;;;;;20.55;10.82;;;;;;;7.84;77.26;102080.13;5031792;28;20140;-48
2023/02/11 08:30:42;;;;;;;13.52;7.55;;;;;;;7.87;77.19;102078.50;5032683;28;20053;-47
2023/02/11 08:33:08;;;;;;;11.30;4.93;;;;;;;7.90;76.11;102078.66;5032804;28;20427;-51
2023/02/11 08:35:36;;;;;;;7.50;4.35;;;;;;;7.93;76.92;102076.16;5033666;28;20580;-49
2023/02/11 08:38:02;;;;;;;7.53;3.65;;;;;;;7.95;77.33;102075.44;5041849;28;20041;-48
2023/02/11 08:40:29;;;;;;;8.63;3.83;;;;;;;7.97;77.11;102084.09;5014469;28;20048;-49
2023/02/11 08:42:55;;;;;;;11.20;3.80;;;;;;;7.97;76.82;102081.53;5029465;28;20088;-47
2023/02/11 08:45:22;;;;;;;14.73;4.07;;;;;;;8.00;76.67;102091.09;5026976;28;20073;-48
2023/02/11 08:47:48;;;;;;;13.27;3.42;;;;;;;8.04;76.44;102097.28;5041920;28;20504;-47
2023/02/11 08:50:15;;;;;;;7.85;2.58;;;;;;;8.08;76.78;102104.31;5040333;28;20053;-48
2023/02/11 08:52:43;;;;;;;6.43;2.33;;;;;;;8.14;76.57;102101.97;5041338;28;20343;-49
2023/02/11 08:55:10;;;;;;;10.07;3.03;;;;;;;8.28;75.95;102106.81;5037303;28;20052;-51
2023/02/11 08:57:36;;;;;;;7.45;3.45;;;;;;;8.40;77.21;102096.97;5038793;28;20145;-48
2023/02/11 09:00:04;;;;;;;17.40;5.85;;;;;;;8.54;76.85;102089.78;5040812;28;20106;-49
2023/02/11 09:02:31;;;;;;;16.73;5.78;;;;;;;8.65;75.77;102097.94;5042277;28;20068;-48
2023/02/11 09:04:57;;;;;;;15.45;5.22;;;;;;;8.70;76.80;102099.03;5037532;28;20347;-48
2023/02/11 09:07:24;;;;;;;10.32;4.43;;;;;;;8.69;76.11;102099.84;5040541;28;20065;-47
2023/02/11 09:09:50;;;;;;;19.02;6.35;;;;;;;8.68;76.62;102095.47;5041238;28;20053;-48
2023/02/11 09:12:17;;;;;;;13.65;5.30;;;;;;;8.71;76.49;102100.78;5043506;28;20154;-51
2023/02/11 09:14:43;;;;;;;15.63;5.07;;;;;;;8.73;76.27;102099.16;5045683;28;20087;-48
2023/02/11 09:17:10;;;;;;;17.42;5.45;;;;;;;8.79;75.95;102097.59;5038832;28;20080;-48
2023/02/11 09:19:39;;;;;;;15.65;5.22;;;;;;;8.87;75.77;102103.94;5038131;28;20135;-49
2023/02/11 09:22:06;;;;;;;9.73;4.00;;;;;;;8.93;75.88;102108.47;5039112;28;20136;-51
2023/02/11 09:24:33;;;;;;;11.02;4.38;;;;;;;8.96;75.63;102104.31;5038713;28;20424;-49
2023/02/11 09:27:00;;;;;;;6.82;2.78;;;;;;;8.98;75.54;102102.63;5037900;28;20069;-50
2023/02/11 09:29:26;;;;;;;13.38;3.72;;;;;;;8.98;75.95;102100.06;5042909;28;20665;-51
2023/02/11 09:31:53;;;;;;;10.88;3.97;;;;;;;9.02;75.64;102102.75;5043705;28;20650;-49
2023/02/11 09:34:20;;;;;;;12.10;3.53;;;;;;;9.05;75.64;102097.69;5025117;28;20052;-49
2023/02/11 09:36:46;;;;;;;12.90;3.97;;;;;;;9.06;76.28;102105.53;5021188;28;20119;-49
2023/02/11 09:39:16;;;;;;;15.75;4.55;;;;;;;9.10;75.96;102112.56;5023925;28;20076;-48
2023/02/11 09:42:09;;;;;;;13.82;4.57;;;;;;;9.12;75.39;102110.03;5016749;28;20093;-48
2023/02/11 09:44:38;;;;;;;13.32;3.65;;;;;;;9.18;75.89;102112.81;5019985;28;20126;-51
2023/02/11 09:47:19;;;;;;;8.25;3.40;;;;;;;9.19;75.46;102117.16;5014848;28;20050;-50
2023/02/11 09:49:51;;;;;;;12.23;4.15;;;;;;;9.23;75.85;102107.81;5016889;28;20523;-48
2023/02/11 09:52:57;;;;;;;13.15;4.18;;;;;;;9.25;75.63;102096.72;5019615;28;20046;-52
2023/02/11 09:55:33;;;;;;;4.90;1.77;;;;;;;9.35;75.42;102099.59;5003190;28;20041;-48
2023/02/11 09:58:02;;;;;;;15.55;4.15;;;;;;;9.37;75.05;102105.72;5011395;28;20053;-48
2023/02/11 10:00:38;;;;;;;20.27;6.53;;;;;;;9.38;74.99;102103.19;5005205;28;20147;-48
2023/02/11 10:06:15;;;;;;;20.95;7.82;;;;;;;9.39;74.93;102107.53;5062288;27;20390;-48
2023/02/11 10:25:04;;;;;;;6.90;2.17;;;;;;;10.66;74.38;102114.22;5026137;28;20778;-48
2023/02/11 10:27:34;;;;;;;6.78;2.75;;;;;;;10.92;73.02;102108.94;5017138;28;20050;-47
2023/02/11 10:30:39;;;;;;;5.80;2.15;;;;;;;11.38;72.62;102118.88;5017493;28;20054;-49
2023/02/11 10:33:18;;;;;;;7.82;2.22;;;;;;;11.74;72.31;102110.28;5015802;28;20669;-48
2023/02/11 10:35:45;;;;;;;10.00;2.38;;;;;;;11.91;71.58;102118.50;5015702;28;26913;-51
2023/02/11 10:38:11;;;;;;;4.20;2.03;;;;;;;11.94;70.84;102120.28;5019509;28;20057;-48
2023/02/11 10:40:38;;;;;;;6.95;2.00;;;;;;;11.96;69.91;102123.81;5020566;28;20053;-48
2023/02/11 10:43:11;;;;;;;7.95;2.70;;;;;;;11.96;69.89;102124.69;5019600;28;20042;-48
2023/02/11 10:45:49;;;;;;;10.70;3.10;;;;;;;11.99;70.24;102118.69;5020711;28;20119;-48
2023/02/11 10:51:19;;;;;;;6.13;2.60;;;;;;;12.31;69.47;102121.22;5041555;28;20402;-51
2023/02/11 10:53:48;;;;;;;5.82;2.33;;;;;;;12.57;68.74;102113.13;4985091;28;20149;-50
2023/02/11 10:56:36;;;;;;;5.10;2.75;;;;;;;12.78;69.00;102117.06;4987373;28;20435;-52
2023/02/11 10:59:18;;;;;;;5.47;2.38;;;;;;;12.94;68.06;102110.44;4994253;28;20509;-50
2023/02/11 11:01:52;;;;;;;3.78;2.03;;;;;;;13.00;66.95;102106.22;4994230;28;20494;-51
2023/02/11 11:07:23;;;;;;;6.45;2.85;;;;;;;12.74;66.46;102117.84;5024721;27;20402;-51
2023/02/11 11:09:58;;;;;;;3.30;2.65;;;;;;;12.58;65.96;102125.31;4997558;28;20050;-51
2023/02/11 11:18:16;;;;;;;3.90;1.52;;;;;;;12.06;64.01;102115.44;5048082;28;20489;-50
2023/02/11 11:20:58;;;;;;;4.40;2.30;;;;;;;11.96;64.55;102122.09;5012305;28;20351;-49
2023/02/11 11:23:27;;;;;;;4.00;1.60;;;;;;;11.96;66.17;102113.44;5019337;28;20053;-52
2023/02/11 11:26:16;;;;;;;6.47;2.35;;;;;;;11.91;65.45;102110.72;5019543;28;20497;-48
2023/02/11 11:29:05;;;;;;;5.03;1.58;;;;;;;11.77;65.32;102115.56;5018880;28;20412;-51
2023/02/11 11:31:44;;;;;;;4.38;1.85;;;;;;;11.75;66.09;102114.63;5014926;28;20081;-50
2023/02/11 11:34:29;;;;;;;6.53;1.52;;;;;;;11.66;65.92;102120.47;5016507;28;20049;-51
2023/02/11 11:36:58;;;;;;;2.65;1.45;;;;;;;11.52;65.81;102117.50;5012031;28;20044;-49
2023/02/11 11:39:33;;;;;;;3.10;2.22;;;;;;;11.49;65.51;102111.38;5017470;28;20464;-48
2023/02/11 11:42:05;;;;;;;6.80;2.42;;;;;;;11.42;66.10;102113.78;5013749;28;20046;-50
2023/02/11 11:44:33;;;;;;;4.60;1.50;;;;;;;11.42;66.60;102121.56;5013456;28;20050;-49
2023/02/11 11:55:24;;;;;;;2.72;1.75;;;;;;;11.37;65.80;102117.97;5004009;27;20416;-50
2023/02/11 11:57:50;;;;;;;4.15;1.55;;;;;;;11.35;66.50;102116.19;4998653;28;20065;-51
2023/02/11 12:00:25;;;;;;;3.20;1.55;;;;;;;11.36;66.20;102115.34;5013063;28;20493;-51
2023/02/11 12:17:06;;;;;;;3.65;1.33;;;;;;;11.36;65.22;102116.22;5068619;27;20375;-52
2023/02/11 12:33:58;;;;;;;3.45;2.13;;;;;;;11.19;66.27;102121.81;5028282;28;20749;-49
2023/02/11 12:47:38;;;;;;;5.88;2.15;;;;;;;11.18;66.25;102120.06;5028437;28;20407;-51
2023/02/11 12:53:08;;;;;;;4.55;3.45;;;;;;;11.15;64.95;102126.88;5061121;27;20387;-49
2023/02/11 12:55:41;;;;;;;5.35;2.30;;;;;;;11.16;65.18;102128.63;5002885;28;20462;-49
2023/02/11 12:58:17;;;;;;;5.35;3.20;;;;;;;11.14;65.64;102133.78;5007586;28;20077;-49
2023/02/11 13:00:50;;;;;;;3.53;2.78;;;;;;;11.16;65.89;102136.41;5017076;28;20057;-50
2023/02/11 13:03:27;;;;;;;7.55;3.17;;;;;;;11.14;65.42;102135.47;5017432;28;20045;-50
2023/02/11 13:05:57;;;;;;;;;;;;;;;11.01;65.11;102134.28;5013243;28;20053;-49
2023/02/11 13:11:06;;;;;;;6.35;2.28;;;;;;;11.13;65.77;102128.53;5011660;27;20766;-49
2023/02/11 13:13:47;;;;;;;5.47;2.20;;;;;;;11.14;65.91;102131.19;4994352;28;20081;-49
2023/02/11 13:16:37;;;;;;;5.20;2.22;;;;;;;11.11;66.30;102140.59;4986042;28;20068;-48
2023/02/11 13:27:39;;;;;;;5.90;2.70;;;;;;;11.13;65.11;102129.44;5040052;28;20403;-51
2023/02/11 13:33:05;;;;;;;9.15;3.40;;;;;;;11.07;65.72;102118.88;5049203;28;20396;-47
2023/02/11 13:35:36;;;;;;;4.05;2.08;;;;;;;11.09;65.55;102109.44;5041616;28;20404;-48
2023/02/11 13:40:44;;;;;;;7.82;3.28;;;;;;;11.40;64.98;102112.00;4995769;28;20762;-49
2023/02/11 13:43:22;;;;;;;7.63;2.90;;;;;;;11.20;64.93;102114.91;4998262;28;20506;-49
2023/02/11 13:45:51;;;;;;;3.65;2.50;;;;;;;11.20;65.49;102114.91;5007128;28;20073;-48
2023/02/11 13:48:23;;;;;;;10.25;2.05;;;;;;;11.21;65.17;102111.47;5007178;28;20429;-51
2023/02/11 13:50:55;;;;;;;3.65;2.10;;;;;;;11.18;65.09;102101.03;5011164;28;20154;-52
2023/02/11 13:53:23;;;;;;;4.15;2.30;;;;;;;11.22;65.13;102104.59;5008586;28;20418;-49
2023/02/11 13:56:03;;;;;;;5.53;2.53;;;;;;;11.26;64.97;102104.72;4999867;28;20050;-50
2023/02/11 14:01:06;;;;;;;6.10;2.75;;;;;;;11.31;65.40;102110.91;5021236;28;20403;-48
2023/02/11 14:11:55;;;;;;;8.98;5.32;;;;;;;11.37;65.24;102105.00;5096232;27;20396;-48
2023/02/11 14:14:27;;;;;;;6.32;3.17;;;;;;;11.38;64.57;102108.50;5050457;28;20468;-50